Flight Track Log - Related Links

Times and Time Zones

All times are in EDT time to prevent confusion due to time zone crossing. See the DAL1737 flight status page for this flight to view local times or setup timezone preferences in your user account.

Time Position Orientation Groundspeed Altitude Reporting Facility
EDT Latitude Longitude Course Direction KTS MPH feet Rate Location/Type
Sat 09:54:51 AM 39.1833 -76.7167 285° West 181 208 1,400  Level Potomac TRACON
Sat 09:55:51 AM 39.1833 -76.7833 270° West 224 258 3,200 2,725 Climbing Potomac TRACON
Sat 09:57:00 AM 39.2000 -77.0611 270° West  Level FlightAware Approximate
Sat 09:58:00 AM 39.2334 -77.1667 322° Northwest  Level FlightAware Approximate
Sat 09:58:18 AM 39.2217 -77.0250 282° West 285 328 10,800  Level Washington Center
Sat 09:59:00 AM 39.3162 -77.2495 322° Northwest  Level FlightAware Approximate
Sat 09:59:19 AM 39.2456 -77.1244 287° West 285 328 13,900  Level Washington Center
Sat 10:00:00 AM 39.3859 -77.3461 285° West  Level FlightAware Approximate
Sat 10:00:20 AM 39.2900 -77.2275 299° West 299 344 16,000  Level Washington Center
Sat 10:01:20 AM 39.3444 -77.3494 300° West 345 397 17,100 1,525 Climbing Washington Center
Sat 10:02:18 AM 39.3739 -77.4817 286° West 400 460 19,000 1,017 Climbing Washington Center
Sat 10:03:18 AM 39.4006 -77.6272 283° West 419 482 19,100 496 Climbing Washington Center
Sat 10:04:19 AM 39.4525 -77.7658 296° West 424 488 20,000 1,622 Climbing Washington Center
Sat 10:07:11 AM 39.6500 -78.1889 301° West 472 543 25,400 1,552 Climbing Cleveland Center
Sat 10:08:11 AM 39.7178 -78.3350 301° West 477 549 26,000 300 Climbing Cleveland Center
Sat 10:09:11 AM 39.7722 -78.4547 301° West 482 555 26,000  Level Cleveland Center
Sat 10:10:11 AM 39.8417 -78.6200 299° West 477 549 26,000  Level Cleveland Center
Sat 10:11:11 AM 39.9111 -78.7697 301° West 477 549 26,000  Level Cleveland Center
Sat 10:12:11 AM 39.9778 -78.9197 300° West 477 549 26,000  Level Cleveland Center
Sat 10:13:11 AM 40.0489 -79.0725 301° West 484 557 26,000  Level Cleveland Center
Sat 10:14:11 AM 40.1133 -79.2203 300° West 478 550 26,000  Level Cleveland Center
Sat 10:15:11 AM 40.1817 -79.3739 300° West 478 550 26,000  Level Cleveland Center
Sat 10:16:11 AM 40.2497 -79.5222 301° West 478 550 26,000  Level Cleveland Center
Sat 10:17:11 AM 40.3136 -79.6736 299° West 478 550 26,000  Level Cleveland Center
Sat 10:18:11 AM 40.3794 -79.8228 300° West 478 550 26,000  Level Cleveland Center
Sat 10:19:11 AM 40.4450 -79.9692 301° West 478 550 26,000  Level Cleveland Center
Sat 10:20:11 AM 40.5061 -80.1217 298° West 478 550 26,000  Level Cleveland Center
Sat 10:21:11 AM 40.5692 -80.2689 299° West 473 544 26,000  Level Cleveland Center
Sat 10:22:11 AM 40.6361 -80.4217 300° West 473 544 26,000  Level Cleveland Center
Sat 10:23:11 AM 40.7050 -80.5694 302° West 479 551 26,000  Level Cleveland Center
Sat 10:24:11 AM 40.7842 -80.7283 303° West 479 551 26,000  Level Cleveland Center
Sat 10:25:11 AM 40.8547 -80.8769 302° West 479 551 26,000  Level Cleveland Center
Sat 10:26:11 AM 40.9253 -81.0256 302° West 479 551 26,000  Level Cleveland Center
Sat 10:27:11 AM 40.9933 -81.1772 301° West 479 551 26,000  Level Cleveland Center
Sat 10:28:11 AM 41.0611 -81.3267 301° West 479 551 26,000  Level Cleveland Center
Sat 10:29:11 AM 41.1353 -81.4736 304° West 479 551 26,000  Level Cleveland Center
Sat 10:30:11 AM 41.2047 -81.6236 302° West 479 551 26,000  Level Cleveland Center
Sat 10:31:11 AM 41.2742 -81.7711 302° West 479 551 26,000 -250 Level Cleveland Center
Sat 10:32:11 AM 41.3414 -81.9189 301° West 479 551 25,500 -750 Descending Cleveland Center
Sat 10:33:11 AM 41.3961 -82.0531 299° West 473 544 24,500 -1,050 Descending Cleveland Center
Sat 10:34:11 AM 41.4669 -82.2069 302° West 466 536 23,400 -1,850 Descending Cleveland Center
Sat 10:35:11 AM 41.5275 -82.3417 301° West 448 516 20,800 -2,654 Descending Cleveland Center
Sat 10:35:55 AM 41.5739 -82.4428 302° West 414 476 18,800 -2,480 Descending Cleveland Center
Sat 10:36:26 AM 41.5978 -82.4989 300° West 403 464 17,700 -2,289 Descending Cleveland Center
Sat 10:37:11 AM 41.6419 -82.5975 301° West 402 463 15,900 -2,400 Descending Cleveland Center
Sat 10:38:11 AM 41.6903 -82.7047 301° West 391 450 13,500 -1,950 Descending Cleveland Center
Sat 10:39:11 AM 41.7547 -82.8156 308° West 386 444 12,000 -750 Descending Cleveland Center
Sat 10:40:11 AM 41.8281 -82.9044 318° Northwest 371 427 12,000  Level Cleveland Center
Sat 10:41:11 AM 41.9033 -82.9964 318° Northwest 366 421 12,000  Level Cleveland Center
Sat 10:42:11 AM 41.9786 -83.0858 319° Northwest 366 421 12,000  Level Cleveland Center
Sat 10:43:11 AM 42.0556 -83.1783 318° Northwest 366 421 12,000 -300 Level Cleveland Center
Sat 10:44:11 AM 42.1397 -83.2433 330° Northwest 354 407 11,400 -950 Descending Cleveland Center
Sat 10:45:11 AM 42.2261 -83.1967 22° Northeast 306 352 10,100 -1,500 Descending Cleveland Center
Sat 10:46:31 AM 42.3361 -83.1225 26° Northeast 301 346 7,900 -1,574 Descending Cleveland Center
Sat 10:47:32 AM 42.4144 -83.0694 27° Northeast 303 349 6,400 -927 Descending Cleveland Center
Sat 10:48:34 AM 42.4767 -83.0886 347° North 217 250 6,000 -465 Descending Cleveland Center
Sat 10:49:41 AM 42.4522 -83.1553 244° Southwest 201 231 5,400 -492 Descending Cleveland Center
Sat 10:50:36 AM 42.4097 -83.1928 213° Southwest 198 228 5,000 -436 Descending Cleveland Center

Login

Don't have an account? Register now (free) for customized features, flight alerts, and more!